sensor_id;sensor_type;location;lat;lon;timestamp;temperature;humidity
42683;DHT22;28293;50.930;3.464;2024-03-06T00:02:07;7.40;94.80
42683;DHT22;28293;50.930;3.464;2024-03-06T00:04:33;7.40;94.90
42683;DHT22;28293;50.930;3.464;2024-03-06T00:06:59;7.30;94.90
42683;DHT22;28293;50.930;3.464;2024-03-06T00:09:25;7.30;95.00
42683;DHT22;28293;50.930;3.464;2024-03-06T00:11:53;7.30;95.00
42683;DHT22;28293;50.930;3.464;2024-03-06T00:14:19;7.20;95.00
42683;DHT22;28293;50.930;3.464;2024-03-06T00:16:45;7.20;95.10
42683;DHT22;28293;50.930;3.464;2024-03-06T00:19:11;7.20;95.10
42683;DHT22;28293;50.930;3.464;2024-03-06T00:21:36;7.20;95.10
42683;DHT22;28293;50.930;3.464;2024-03-06T00:24:03;7.20;95.10
42683;DHT22;28293;50.930;3.464;2024-03-06T00:26:29;7.20;95.20
42683;DHT22;28293;50.930;3.464;2024-03-06T00:28:55;7.20;95.20
42683;DHT22;28293;50.930;3.464;2024-03-06T00:31:20;7.20;95.20
42683;DHT22;28293;50.930;3.464;2024-03-06T00:33:46;7.20;95.20
42683;DHT22;28293;50.930;3.464;2024-03-06T00:36:12;7.20;95.20
42683;DHT22;28293;50.930;3.464;2024-03-06T00:38:37;7.20;95.20
42683;DHT22;28293;50.930;3.464;2024-03-06T00:41:03;7.20;95.20
42683;DHT22;28293;50.930;3.464;2024-03-06T00:43:29;7.20;95.20
42683;DHT22;28293;50.930;3.464;2024-03-06T00:45:54;7.10;95.20
42683;DHT22;28293;50.930;3.464;2024-03-06T00:48:21;7.10;95.20
42683;DHT22;28293;50.930;3.464;2024-03-06T00:50:47;7.10;95.20
42683;DHT22;28293;50.930;3.464;2024-03-06T00:53:12;7.10;95.30
42683;DHT22;28293;50.930;3.464;2024-03-06T00:55:38;7.10;95.30
42683;DHT22;28293;50.930;3.464;2024-03-06T00:58:05;7.10;95.30
42683;DHT22;28293;50.930;3.464;2024-03-06T01:00:32;7.10;95.30
42683;DHT22;28293;50.930;3.464;2024-03-06T01:02:57;7.10;95.40
42683;DHT22;28293;50.930;3.464;2024-03-06T01:05:23;7.10;95.30
42683;DHT22;28293;50.930;3.464;2024-03-06T01:07:49;7.00;95.30
42683;DHT22;28293;50.930;3.464;2024-03-06T01:10:14;7.00;95.30
42683;DHT22;28293;50.930;3.464;2024-03-06T01:12:40;7.00;95.40
42683;DHT22;28293;50.930;3.464;2024-03-06T01:15:06;6.90;95.40
42683;DHT22;28293;50.930;3.464;2024-03-06T01:17:33;6.90;95.40
42683;DHT22;28293;50.930;3.464;2024-03-06T01:19:59;6.80;95.40
42683;DHT22;28293;50.930;3.464;2024-03-06T01:22:26;6.80;95.40
42683;DHT22;28293;50.930;3.464;2024-03-06T01:24:52;6.80;95.40
42683;DHT22;28293;50.930;3.464;2024-03-06T01:27:17;6.80;95.40
42683;DHT22;28293;50.930;3.464;2024-03-06T01:29:43;6.70;95.40
42683;DHT22;28293;50.930;3.464;2024-03-06T01:32:08;6.70;95.40
42683;DHT22;28293;50.930;3.464;2024-03-06T01:34:35;6.70;95.50
42683;DHT22;28293;50.930;3.464;2024-03-06T01:37:01;6.60;95.60
42683;DHT22;28293;50.930;3.464;2024-03-06T01:39:27;6.60;95.60
42683;DHT22;28293;50.930;3.464;2024-03-06T01:41:52;6.60;95.70
42683;DHT22;28293;50.930;3.464;2024-03-06T01:44:18;6.60;95.70
42683;DHT22;28293;50.930;3.464;2024-03-06T01:46:45;6.60;95.70
42683;DHT22;28293;50.930;3.464;2024-03-06T01:49:11;6.60;95.70
42683;DHT22;28293;50.930;3.464;2024-03-06T01:51:40;6.50;95.70
42683;DHT22;28293;50.930;3.464;2024-03-06T01:54:06;6.50;95.70
42683;DHT22;28293;50.930;3.464;2024-03-06T01:56:38;6.40;95.70
42683;DHT22;28293;50.930;3.464;2024-03-06T01:59:06;6.40;95.70
42683;DHT22;28293;50.930;3.464;2024-03-06T02:01:32;6.40;95.80
42683;DHT22;28293;50.930;3.464;2024-03-06T02:03:59;6.40;95.80
42683;DHT22;28293;50.930;3.464;2024-03-06T02:06:25;6.40;95.80
42683;DHT22;28293;50.930;3.464;2024-03-06T02:08:51;6.40;95.80
42683;DHT22;28293;50.930;3.464;2024-03-06T02:11:17;6.40;95.90
42683;DHT22;28293;50.930;3.464;2024-03-06T02:13:43;6.30;95.90
42683;DHT22;28293;50.930;3.464;2024-03-06T02:16:11;6.30;95.90
42683;DHT22;28293;50.930;3.464;2024-03-06T02:18:37;6.20;95.90
42683;DHT22;28293;50.930;3.464;2024-03-06T02:21:03;6.20;96.00
42683;DHT22;28293;50.930;3.464;2024-03-06T02:23:30;6.20;96.00
42683;DHT22;28293;50.930;3.464;2024-03-06T02:25:56;6.20;96.00
42683;DHT22;28293;50.930;3.464;2024-03-06T02:28:21;6.10;96.10
42683;DHT22;28293;50.930;3.464;2024-03-06T02:30:50;6.10;96.10
42683;DHT22;28293;50.930;3.464;2024-03-06T02:33:16;6.10;96.20
42683;DHT22;28293;50.930;3.464;2024-03-06T02:35:43;6.10;96.20
42683;DHT22;28293;50.930;3.464;2024-03-06T02:38:10;6.10;96.20
42683;DHT22;28293;50.930;3.464;2024-03-06T02:40:36;6.00;96.20
42683;DHT22;28293;50.930;3.464;2024-03-06T02:43:02;6.10;96.30
42683;DHT22;28293;50.930;3.464;2024-03-06T02:45:28;6.00;96.30
42683;DHT22;28293;50.930;3.464;2024-03-06T02:47:53;6.00;96.30
42683;DHT22;28293;50.930;3.464;2024-03-06T02:50:19;6.00;96.30
42683;DHT22;28293;50.930;3.464;2024-03-06T02:52:46;5.90;96.20
42683;DHT22;28293;50.930;3.464;2024-03-06T02:55:12;5.80;96.20
42683;DHT22;28293;50.930;3.464;2024-03-06T02:57:37;5.70;96.20
42683;DHT22;28293;50.930;3.464;2024-03-06T03:00:03;5.70;96.20
42683;DHT22;28293;50.930;3.464;2024-03-06T03:02:29;5.70;96.30
42683;DHT22;28293;50.930;3.464;2024-03-06T03:04:55;5.70;96.30
42683;DHT22;28293;50.930;3.464;2024-03-06T03:07:20;5.70;96.30
42683;DHT22;28293;50.930;3.464;2024-03-06T03:09:46;5.70;96.40
42683;DHT22;28293;50.930;3.464;2024-03-06T03:12:12;5.70;96.50
42683;DHT22;28293;50.930;3.464;2024-03-06T03:14:40;5.70;96.50
42683;DHT22;28293;50.930;3.464;2024-03-06T03:17:06;5.80;96.50
42683;DHT22;28293;50.930;3.464;2024-03-06T03:19:31;5.70;96.50
42683;DHT22;28293;50.930;3.464;2024-03-06T03:21:57;5.80;96.50
42683;DHT22;28293;50.930;3.464;2024-03-06T03:24:23;5.80;96.50
42683;DHT22;28293;50.930;3.464;2024-03-06T03:26:51;5.80;96.40
42683;DHT22;28293;50.930;3.464;2024-03-06T03:29:17;5.80;96.30
42683;DHT22;28293;50.930;3.464;2024-03-06T03:31:43;5.80;96.30
42683;DHT22;28293;50.930;3.464;2024-03-06T03:34:08;5.80;96.30
42683;DHT22;28293;50.930;3.464;2024-03-06T03:36:34;5.80;96.30
42683;DHT22;28293;50.930;3.464;2024-03-06T03:39:00;5.80;96.30
42683;DHT22;28293;50.930;3.464;2024-03-06T03:41:25;5.80;96.30
42683;DHT22;28293;50.930;3.464;2024-03-06T03:43:51;5.80;96.30
42683;DHT22;28293;50.930;3.464;2024-03-06T03:46:17;5.70;96.30
42683;DHT22;28293;50.930;3.464;2024-03-06T03:48:42;5.70;96.30
42683;DHT22;28293;50.930;3.464;2024-03-06T03:51:08;5.70;96.40
42683;DHT22;28293;50.930;3.464;2024-03-06T03:53:34;5.70;96.40
42683;DHT22;28293;50.930;3.464;2024-03-06T03:56:01;5.70;96.50
42683;DHT22;28293;50.930;3.464;2024-03-06T03:58:27;5.60;96.50
42683;DHT22;28293;50.930;3.464;2024-03-06T04:00:53;5.60;96.50
42683;DHT22;28293;50.930;3.464;2024-03-06T04:03:20;5.60;96.50
42683;DHT22;28293;50.930;3.464;2024-03-06T04:05:49;5.60;96.60
42683;DHT22;28293;50.930;3.464;2024-03-06T04:08:15;5.60;96.60
42683;DHT22;28293;50.930;3.464;2024-03-06T04:10:42;5.60;96.70
42683;DHT22;28293;50.930;3.464;2024-03-06T04:13:11;5.60;96.80
42683;DHT22;28293;50.930;3.464;2024-03-06T04:15:37;5.60;96.70
42683;DHT22;28293;50.930;3.464;2024-03-06T04:18:03;5.50;96.70
42683;DHT22;28293;50.930;3.464;2024-03-06T04:20:28;5.50;96.70
42683;DHT22;28293;50.930;3.464;2024-03-06T04:22:54;5.40;96.70
42683;DHT22;28293;50.930;3.464;2024-03-06T04:25:20;5.40;96.80
42683;DHT22;28293;50.930;3.464;2024-03-06T04:27:45;5.40;96.80
42683;DHT22;28293;50.930;3.464;2024-03-06T04:30:12;5.40;96.90
42683;DHT22;28293;50.930;3.464;2024-03-06T04:32:37;5.40;96.80
42683;DHT22;28293;50.930;3.464;2024-03-06T04:35:04;5.30;96.90
42683;DHT22;28293;50.930;3.464;2024-03-06T04:37:29;5.40;96.90
42683;DHT22;28293;50.930;3.464;2024-03-06T04:39:56;5.40;97.00
42683;DHT22;28293;50.930;3.464;2024-03-06T04:42:21;5.40;97.00
42683;DHT22;28293;50.930;3.464;2024-03-06T04:44:47;5.50;97.00
42683;DHT22;28293;50.930;3.464;2024-03-06T04:47:13;5.50;97.00
42683;DHT22;28293;50.930;3.464;2024-03-06T04:49:38;5.60;97.00
42683;DHT22;28293;50.930;3.464;2024-03-06T04:52:04;5.60;97.00
42683;DHT22;28293;50.930;3.464;2024-03-06T04:54:30;5.60;96.90
42683;DHT22;28293;50.930;3.464;2024-03-06T04:56:56;5.60;96.90
42683;DHT22;28293;50.930;3.464;2024-03-06T04:59:21;5.60;96.90
42683;DHT22;28293;50.930;3.464;2024-03-06T05:01:47;5.60;96.90
42683;DHT22;28293;50.930;3.464;2024-03-06T05:04:12;5.60;96.90
42683;DHT22;28293;50.930;3.464;2024-03-06T05:06:38;5.50;96.90
42683;DHT22;28293;50.930;3.464;2024-03-06T05:09:04;5.50;96.90
42683;DHT22;28293;50.930;3.464;2024-03-06T05:11:31;5.50;96.90
42683;DHT22;28293;50.930;3.464;2024-03-06T05:14:00;5.40;96.90
42683;DHT22;28293;50.930;3.464;2024-03-06T05:16:26;5.40;96.90
42683;DHT22;28293;50.930;3.464;2024-03-06T05:18:52;5.40;97.00
42683;DHT22;28293;50.930;3.464;2024-03-06T05:21:18;5.40;97.00
42683;DHT22;28293;50.930;3.464;2024-03-06T05:23:44;5.40;97.00
42683;DHT22;28293;50.930;3.464;2024-03-06T05:26:09;5.40;97.10
42683;DHT22;28293;50.930;3.464;2024-03-06T05:28:35;5.50;97.20
42683;DHT22;28293;50.930;3.464;2024-03-06T05:31:01;5.50;97.30
42683;DHT22;28293;50.930;3.464;2024-03-06T05:33:26;5.50;97.30
42683;DHT22;28293;50.930;3.464;2024-03-06T05:35:54;5.50;97.30
42683;DHT22;28293;50.930;3.464;2024-03-06T05:38:20;5.60;97.20
42683;DHT22;28293;50.930;3.464;2024-03-06T05:40:47;5.60;97.10
42683;DHT22;28293;50.930;3.464;2024-03-06T05:43:13;5.50;97.00
42683;DHT22;28293;50.930;3.464;2024-03-06T05:45:38;5.50;97.00
42683;DHT22;28293;50.930;3.464;2024-03-06T05:48:04;5.50;97.00
42683;DHT22;28293;50.930;3.464;2024-03-06T05:50:30;5.40;97.00
42683;DHT22;28293;50.930;3.464;2024-03-06T05:52:57;5.50;97.10
42683;DHT22;28293;50.930;3.464;2024-03-06T05:55:23;5.50;97.20
42683;DHT22;28293;50.930;3.464;2024-03-06T05:57:48;5.50;97.20
42683;DHT22;28293;50.930;3.464;2024-03-06T06:00:15;5.50;97.20
42683;DHT22;28293;50.930;3.464;2024-03-06T06:02:43;5.50;97.10
42683;DHT22;28293;50.930;3.464;2024-03-06T06:05:11;5.60;97.10
42683;DHT22;28293;50.930;3.464;2024-03-06T06:07:36;5.50;97.10
42683;DHT22;28293;50.930;3.464;2024-03-06T06:10:04;5.50;97.10
42683;DHT22;28293;50.930;3.464;2024-03-06T06:12:33;5.40;97.00
42683;DHT22;28293;50.930;3.464;2024-03-06T06:14:59;5.40;96.90
42683;DHT22;28293;50.930;3.464;2024-03-06T06:17:25;5.30;96.90
42683;DHT22;28293;50.930;3.464;2024-03-06T06:19:51;5.30;96.90
42683;DHT22;28293;50.930;3.464;2024-03-06T06:22:16;5.20;96.90
42683;DHT22;28293;50.930;3.464;2024-03-06T06:24:42;5.10;97.00
42683;DHT22;28293;50.930;3.464;2024-03-06T06:27:07;5.10;97.10
42683;DHT22;28293;50.930;3.464;2024-03-06T06:29:33;5.10;97.10
42683;DHT22;28293;50.930;3.464;2024-03-06T06:31:59;5.10;97.20
42683;DHT22;28293;50.930;3.464;2024-03-06T06:34:25;5.10;97.20
42683;DHT22;28293;50.930;3.464;2024-03-06T06:36:53;5.10;97.20
42683;DHT22;28293;50.930;3.464;2024-03-06T06:39:19;5.10;97.20
42683;DHT22;28293;50.930;3.464;2024-03-06T06:41:44;5.10;97.20
42683;DHT22;28293;50.930;3.464;2024-03-06T06:44:10;5.10;97.10
42683;DHT22;28293;50.930;3.464;2024-03-06T06:46:38;5.10;97.20
42683;DHT22;28293;50.930;3.464;2024-03-06T06:49:04;5.10;97.10
42683;DHT22;28293;50.930;3.464;2024-03-06T06:51:29;5.10;97.10
42683;DHT22;28293;50.930;3.464;2024-03-06T06:53:55;5.10;97.10
42683;DHT22;28293;50.930;3.464;2024-03-06T06:56:21;5.10;97.10
42683;DHT22;28293;50.930;3.464;2024-03-06T06:58:49;5.20;97.10
42683;DHT22;28293;50.930;3.464;2024-03-06T07:01:15;5.30;97.10
42683;DHT22;28293;50.930;3.464;2024-03-06T07:03:42;5.40;97.10
42683;DHT22;28293;50.930;3.464;2024-03-06T07:06:08;5.40;97.00
42683;DHT22;28293;50.930;3.464;2024-03-06T07:08:33;5.50;97.00
42683;DHT22;28293;50.930;3.464;2024-03-06T07:10:59;5.60;96.90
42683;DHT22;28293;50.930;3.464;2024-03-06T07:13:24;5.70;96.80
42683;DHT22;28293;50.930;3.464;2024-03-06T07:15:51;5.70;96.20
42683;DHT22;28293;50.930;3.464;2024-03-06T07:18:16;5.80;96.00
42683;DHT22;28293;50.930;3.464;2024-03-06T07:20:42;5.80;95.90
42683;DHT22;28293;50.930;3.464;2024-03-06T07:23:07;5.80;95.90
42683;DHT22;28293;50.930;3.464;2024-03-06T07:25:33;5.80;95.90
42683;DHT22;28293;50.930;3.464;2024-03-06T07:27:59;5.80;95.90
42683;DHT22;28293;50.930;3.464;2024-03-06T07:30:25;5.90;96.00
42683;DHT22;28293;50.930;3.464;2024-03-06T07:32:50;5.90;96.10
42683;DHT22;28293;50.930;3.464;2024-03-06T07:35:16;5.90;96.10
42683;DHT22;28293;50.930;3.464;2024-03-06T07:37:43;6.00;96.20
42683;DHT22;28293;50.930;3.464;2024-03-06T07:40:10;6.10;96.40
42683;DHT22;28293;50.930;3.464;2024-03-06T07:42:35;6.10;96.40
42683;DHT22;28293;50.930;3.464;2024-03-06T07:45:03;6.10;96.40
42683;DHT22;28293;50.930;3.464;2024-03-06T07:47:29;6.30;96.50
42683;DHT22;28293;50.930;3.464;2024-03-06T07:49:55;6.30;96.50
42683;DHT22;28293;50.930;3.464;2024-03-06T07:52:20;6.40;96.60
42683;DHT22;28293;50.930;3.464;2024-03-06T07:54:46;6.50;96.60
42683;DHT22;28293;50.930;3.464;2024-03-06T07:57:12;6.60;96.50
42683;DHT22;28293;50.930;3.464;2024-03-06T07:59:38;6.50;96.10
42683;DHT22;28293;50.930;3.464;2024-03-06T08:02:03;6.50;96.20
42683;DHT22;28293;50.930;3.464;2024-03-06T08:04:30;6.60;96.30
42683;DHT22;28293;50.930;3.464;2024-03-06T08:06:56;6.60;96.20
42683;DHT22;28293;50.930;3.464;2024-03-06T08:09:21;6.60;96.20
42683;DHT22;28293;50.930;3.464;2024-03-06T08:11:49;6.80;96.30
42683;DHT22;28293;50.930;3.464;2024-03-06T08:14:14;7.00;96.40
42683;DHT22;28293;50.930;3.464;2024-03-06T08:16:42;7.10;96.40
42683;DHT22;28293;50.930;3.464;2024-03-06T08:19:08;7.30;96.40
42683;DHT22;28293;50.930;3.464;2024-03-06T08:21:35;7.40;96.20
42683;DHT22;28293;50.930;3.464;2024-03-06T08:24:00;7.60;96.30
42683;DHT22;28293;50.930;3.464;2024-03-06T08:26:26;7.90;96.10
42683;DHT22;28293;50.930;3.464;2024-03-06T08:28:52;8.10;96.00
42683;DHT22;28293;50.930;3.464;2024-03-06T08:31:18;8.50;96.00
42683;DHT22;28293;50.930;3.464;2024-03-06T08:33:44;8.60;95.30
42683;DHT22;28293;50.930;3.464;2024-03-06T08:36:10;8.70;94.70
42683;DHT22;28293;50.930;3.464;2024-03-06T08:38:35;8.60;94.00
42683;DHT22;28293;50.930;3.464;2024-03-06T08:41:01;8.70;93.90
42683;DHT22;28293;50.930;3.464;2024-03-06T08:43:26;8.60;93.30
42683;DHT22;28293;50.930;3.464;2024-03-06T08:45:52;8.60;93.10
42683;DHT22;28293;50.930;3.464;2024-03-06T08:48:18;8.70;93.40
42683;DHT22;28293;50.930;3.464;2024-03-06T08:50:43;8.80;93.30
42683;DHT22;28293;50.930;3.464;2024-03-06T08:53:09;8.90;93.30
42683;DHT22;28293;50.930;3.464;2024-03-06T08:55:35;9.10;93.40
42683;DHT22;28293;50.930;3.464;2024-03-06T08:58:00;9.30;92.90
42683;DHT22;28293;50.930;3.464;2024-03-06T09:00:26;9.50;92.90
42683;DHT22;28293;50.930;3.464;2024-03-06T09:02:52;9.70;92.10
42683;DHT22;28293;50.930;3.464;2024-03-06T09:05:18;9.90;91.20
42683;DHT22;28293;50.930;3.464;2024-03-06T09:07:45;10.10;91.20
42683;DHT22;28293;50.930;3.464;2024-03-06T09:10:12;10.20;89.80
42683;DHT22;28293;50.930;3.464;2024-03-06T09:12:39;10.40;89.40
42683;DHT22;28293;50.930;3.464;2024-03-06T09:15:05;10.40;89.10
42683;DHT22;28293;50.930;3.464;2024-03-06T09:17:34;10.60;88.70
42683;DHT22;28293;50.930;3.464;2024-03-06T09:20:00;10.80;88.50
42683;DHT22;28293;50.930;3.464;2024-03-06T09:22:35;11.10;87.80
42683;DHT22;28293;50.930;3.464;2024-03-06T09:25:01;11.10;87.10
42683;DHT22;28293;50.930;3.464;2024-03-06T09:27:27;11.30;86.50
42683;DHT22;28293;50.930;3.464;2024-03-06T09:29:52;11.40;85.60
42683;DHT22;28293;50.930;3.464;2024-03-06T09:32:18;11.40;85.40
42683;DHT22;28293;50.930;3.464;2024-03-06T09:34:44;11.40;85.10
42683;DHT22;28293;50.930;3.464;2024-03-06T09:37:10;11.40;85.40
42683;DHT22;28293;50.930;3.464;2024-03-06T09:39:35;11.60;84.70
42683;DHT22;28293;50.930;3.464;2024-03-06T09:42:01;11.60;84.10
42683;DHT22;28293;50.930;3.464;2024-03-06T09:44:27;11.70;84.20
42683;DHT22;28293;50.930;3.464;2024-03-06T09:46:54;11.80;83.50
42683;DHT22;28293;50.930;3.464;2024-03-06T09:49:22;11.60;82.50
42683;DHT22;28293;50.930;3.464;2024-03-06T09:51:49;11.60;83.50
42683;DHT22;28293;50.930;3.464;2024-03-06T09:54:26;11.70;83.90
42683;DHT22;28293;50.930;3.464;2024-03-06T09:56:52;11.80;83.50
42683;DHT22;28293;50.930;3.464;2024-03-06T09:59:20;12.00;83.40
42683;DHT22;28293;50.930;3.464;2024-03-06T10:01:55;12.00;81.60
42683;DHT22;28293;50.930;3.464;2024-03-06T10:04:24;11.90;82.70
42683;DHT22;28293;50.930;3.464;2024-03-06T10:06:59;12.10;82.30
42683;DHT22;28293;50.930;3.464;2024-03-06T10:09:26;12.10;81.50
42683;DHT22;28293;50.930;3.464;2024-03-06T10:11:53;12.30;81.70
42683;DHT22;28293;50.930;3.464;2024-03-06T10:14:19;12.10;80.60
42683;DHT22;28293;50.930;3.464;2024-03-06T10:16:59;12.10;81.30
42683;DHT22;28293;50.930;3.464;2024-03-06T10:19:26;12.40;82.60
42683;DHT22;28293;50.930;3.464;2024-03-06T10:21:56;12.40;78.70
42683;DHT22;28293;50.930;3.464;2024-03-06T10:24:29;12.60;80.40
42683;DHT22;28293;50.930;3.464;2024-03-06T10:26:57;12.80;79.60
42683;DHT22;28293;50.930;3.464;2024-03-06T10:29:25;13.10;80.00
42683;DHT22;28293;50.930;3.464;2024-03-06T10:31:52;13.20;76.20
42683;DHT22;28293;50.930;3.464;2024-03-06T10:34:21;13.50;77.20
42683;DHT22;28293;50.930;3.464;2024-03-06T10:37:00;13.60;76.00
42683;DHT22;28293;50.930;3.464;2024-03-06T10:39:27;13.40;75.50
42683;DHT22;28293;50.930;3.464;2024-03-06T10:41:56;13.40;75.10
42683;DHT22;28293;50.930;3.464;2024-03-06T10:44:26;13.20;75.60
42683;DHT22;28293;50.930;3.464;2024-03-06T10:46:59;13.20;76.60
42683;DHT22;28293;50.930;3.464;2024-03-06T10:49:26;13.50;77.00
42683;DHT22;28293;50.930;3.464;2024-03-06T10:51:57;13.60;76.10
42683;DHT22;28293;50.930;3.464;2024-03-06T10:54:23;13.90;76.30
42683;DHT22;28293;50.930;3.464;2024-03-06T10:56:52;14.00;74.40
42683;DHT22;28293;50.930;3.464;2024-03-06T10:59:20;13.50;74.40
42683;DHT22;28293;50.930;3.464;2024-03-06T11:01:47;13.40;76.00
42683;DHT22;28293;50.930;3.464;2024-03-06T11:04:13;13.50;75.20
42683;DHT22;28293;50.930;3.464;2024-03-06T11:06:40;13.70;73.90
42683;DHT22;28293;50.930;3.464;2024-03-06T11:09:07;13.90;74.60
42683;DHT22;28293;50.930;3.464;2024-03-06T11:11:50;14.30;73.50
42683;DHT22;28293;50.930;3.464;2024-03-06T11:14:22;14.50;71.40
42683;DHT22;28293;50.930;3.464;2024-03-06T11:17:04;14.50;71.40
42683;DHT22;28293;50.930;3.464;2024-03-06T11:19:31;14.10;73.50
42683;DHT22;28293;50.930;3.464;2024-03-06T11:21:58;14.30;73.60
42683;DHT22;28293;50.930;3.464;2024-03-06T11:24:32;14.30;73.40
42683;DHT22;28293;50.930;3.464;2024-03-06T11:27:02;14.10;72.50
42683;DHT22;28293;50.930;3.464;2024-03-06T11:29:29;14.30;72.10
42683;DHT22;28293;50.930;3.464;2024-03-06T11:32:06;14.30;70.70
42683;DHT22;28293;50.930;3.464;2024-03-06T11:34:34;14.30;72.30
42683;DHT22;28293;50.930;3.464;2024-03-06T11:37:03;14.50;71.80
42683;DHT22;28293;50.930;3.464;2024-03-06T11:39:33;14.30;71.00
42683;DHT22;28293;50.930;3.464;2024-03-06T11:42:03;14.10;72.50
42683;DHT22;28293;50.930;3.464;2024-03-06T11:44:34;14.40;72.70
42683;DHT22;28293;50.930;3.464;2024-03-06T11:47:03;14.70;70.50
42683;DHT22;28293;50.930;3.464;2024-03-06T11:49:30;14.80;69.80
42683;DHT22;28293;50.930;3.464;2024-03-06T11:52:01;14.20;70.30
42683;DHT22;28293;50.930;3.464;2024-03-06T11:54:29;14.10;70.30
42683;DHT22;28293;50.930;3.464;2024-03-06T11:56:57;14.30;70.70
42683;DHT22;28293;50.930;3.464;2024-03-06T11:59:36;14.60;69.60
42683;DHT22;28293;50.930;3.464;2024-03-06T12:02:06;14.20;69.70
42683;DHT22;28293;50.930;3.464;2024-03-06T12:04:32;14.30;69.30
42683;DHT22;28293;50.930;3.464;2024-03-06T12:07:04;14.30;69.60
42683;DHT22;28293;50.930;3.464;2024-03-06T12:09:34;14.50;68.80
42683;DHT22;28293;50.930;3.464;2024-03-06T12:12:00;14.70;68.80
42683;DHT22;28293;50.930;3.464;2024-03-06T12:14:26;14.70;67.20
42683;DHT22;28293;50.930;3.464;2024-03-06T12:16:59;14.70;68.60
42683;DHT22;28293;50.930;3.464;2024-03-06T12:19:26;14.40;67.70
42683;DHT22;28293;50.930;3.464;2024-03-06T12:21:53;14.20;70.10
42683;DHT22;28293;50.930;3.464;2024-03-06T12:24:19;14.10;70.50
42683;DHT22;28293;50.930;3.464;2024-03-06T12:26:45;13.90;69.30
42683;DHT22;28293;50.930;3.464;2024-03-06T12:29:17;13.70;70.30
42683;DHT22;28293;50.930;3.464;2024-03-06T12:31:44;13.80;70.90
42683;DHT22;28293;50.930;3.464;2024-03-06T12:34:14;13.90;71.30
42683;DHT22;28293;50.930;3.464;2024-03-06T12:36:43;14.00;70.00
42683;DHT22;28293;50.930;3.464;2024-03-06T12:39:08;14.20;69.90
42683;DHT22;28293;50.930;3.464;2024-03-06T12:41:39;14.60;68.50
42683;DHT22;28293;50.930;3.464;2024-03-06T12:44:05;14.60;67.50
42683;DHT22;28293;50.930;3.464;2024-03-06T12:46:32;14.40;66.50
42683;DHT22;28293;50.930;3.464;2024-03-06T12:48:58;14.00;66.80
42683;DHT22;28293;50.930;3.464;2024-03-06T12:51:23;13.80;67.70
42683;DHT22;28293;50.930;3.464;2024-03-06T12:53:49;13.70;68.10
42683;DHT22;28293;50.930;3.464;2024-03-06T12:56:15;14.00;68.70
42683;DHT22;28293;50.930;3.464;2024-03-06T12:58:41;14.10;68.70
42683;DHT22;28293;50.930;3.464;2024-03-06T13:01:06;14.20;68.40
42683;DHT22;28293;50.930;3.464;2024-03-06T13:03:32;14.20;67.80
42683;DHT22;28293;50.930;3.464;2024-03-06T13:05:58;14.20;67.00
42683;DHT22;28293;50.930;3.464;2024-03-06T13:08:24;14.30;67.60
42683;DHT22;28293;50.930;3.464;2024-03-06T13:10:50;14.40;66.10
42683;DHT22;28293;50.930;3.464;2024-03-06T13:13:16;14.10;66.60
42683;DHT22;28293;50.930;3.464;2024-03-06T13:15:41;14.10;66.40
42683;DHT22;28293;50.930;3.464;2024-03-06T13:18:07;14.10;67.80
42683;DHT22;28293;50.930;3.464;2024-03-06T13:20:33;14.10;65.40
42683;DHT22;28293;50.930;3.464;2024-03-06T13:22:59;14.10;66.00
42683;DHT22;28293;50.930;3.464;2024-03-06T13:25:25;14.10;67.00
42683;DHT22;28293;50.930;3.464;2024-03-06T13:27:51;13.90;65.80
42683;DHT22;28293;50.930;3.464;2024-03-06T13:30:20;13.70;66.10
42683;DHT22;28293;50.930;3.464;2024-03-06T13:32:46;13.80;66.50
42683;DHT22;28293;50.930;3.464;2024-03-06T13:35:12;14.00;64.50
42683;DHT22;28293;50.930;3.464;2024-03-06T13:37:41;13.90;65.60
42683;DHT22;28293;50.930;3.464;2024-03-06T13:40:08;14.20;66.60
42683;DHT22;28293;50.930;3.464;2024-03-06T13:42:36;14.60;66.00
42683;DHT22;28293;50.930;3.464;2024-03-06T13:45:05;14.70;65.20
42683;DHT22;28293;50.930;3.464;2024-03-06T13:47:35;14.90;64.00
42683;DHT22;28293;50.930;3.464;2024-03-06T13:50:01;14.70;61.50
42683;DHT22;28293;50.930;3.464;2024-03-06T13:52:27;14.70;62.30
42683;DHT22;28293;50.930;3.464;2024-03-06T13:54:52;14.50;61.80
42683;DHT22;28293;50.930;3.464;2024-03-06T13:57:18;14.20;61.70
42683;DHT22;28293;50.930;3.464;2024-03-06T13:59:44;14.20;61.90
42683;DHT22;28293;50.930;3.464;2024-03-06T14:02:09;14.10;61.90
42683;DHT22;28293;50.930;3.464;2024-03-06T14:04:35;14.00;60.00
42683;DHT22;28293;50.930;3.464;2024-03-06T14:07:01;13.80;61.80
42683;DHT22;28293;50.930;3.464;2024-03-06T14:09:27;13.70;63.00
42683;DHT22;28293;50.930;3.464;2024-03-06T14:11:53;13.60;63.80
42683;DHT22;28293;50.930;3.464;2024-03-06T14:14:20;13.50;63.20
42683;DHT22;28293;50.930;3.464;2024-03-06T14:16:46;13.50;64.30
42683;DHT22;28293;50.930;3.464;2024-03-06T14:19:12;13.50;63.90
42683;DHT22;28293;50.930;3.464;2024-03-06T14:21:37;13.50;63.90
42683;DHT22;28293;50.930;3.464;2024-03-06T14:24:04;13.50;65.00
42683;DHT22;28293;50.930;3.464;2024-03-06T14:26:31;13.60;62.10
42683;DHT22;28293;50.930;3.464;2024-03-06T14:28:57;13.60;61.00
42683;DHT22;28293;50.930;3.464;2024-03-06T14:31:23;13.60;61.90
42683;DHT22;28293;50.930;3.464;2024-03-06T14:33:48;13.60;62.40
42683;DHT22;28293;50.930;3.464;2024-03-06T14:36:18;13.60;63.20
42683;DHT22;28293;50.930;3.464;2024-03-06T14:38:44;13.50;62.60
42683;DHT22;28293;50.930;3.464;2024-03-06T14:41:10;13.50;63.20
42683;DHT22;28293;50.930;3.464;2024-03-06T14:43:36;13.60;63.50
42683;DHT22;28293;50.930;3.464;2024-03-06T14:46:04;13.30;63.10
42683;DHT22;28293;50.930;3.464;2024-03-06T14:48:31;13.20;63.50
42683;DHT22;28293;50.930;3.464;2024-03-06T14:50:56;13.20;64.30
42683;DHT22;28293;50.930;3.464;2024-03-06T14:53:22;13.20;64.00
42683;DHT22;28293;50.930;3.464;2024-03-06T14:55:48;13.10;65.20
42683;DHT22;28293;50.930;3.464;2024-03-06T14:58:13;13.20;65.90
42683;DHT22;28293;50.930;3.464;2024-03-06T15:00:39;13.20;66.70
42683;DHT22;28293;50.930;3.464;2024-03-06T15:03:04;13.30;66.30
42683;DHT22;28293;50.930;3.464;2024-03-06T15:05:31;13.30;66.40
42683;DHT22;28293;50.930;3.464;2024-03-06T15:07:57;13.20;66.50
42683;DHT22;28293;50.930;3.464;2024-03-06T15:10:23;13.20;66.50
42683;DHT22;28293;50.930;3.464;2024-03-06T15:12:49;13.40;66.60
42683;DHT22;28293;50.930;3.464;2024-03-06T15:15:15;13.40;66.60
42683;DHT22;28293;50.930;3.464;2024-03-06T15:17:41;13.60;65.40
42683;DHT22;28293;50.930;3.464;2024-03-06T15:20:07;13.70;64.40
42683;DHT22;28293;50.930;3.464;2024-03-06T15:22:37;13.80;63.30
42683;DHT22;28293;50.930;3.464;2024-03-06T15:25:10;13.80;61.10
42683;DHT22;28293;50.930;3.464;2024-03-06T15:27:36;13.70;62.90
42683;DHT22;28293;50.930;3.464;2024-03-06T15:30:04;13.60;62.50
42683;DHT22;28293;50.930;3.464;2024-03-06T15:32:30;13.60;63.40
42683;DHT22;28293;50.930;3.464;2024-03-06T15:34:55;13.40;63.30
42683;DHT22;28293;50.930;3.464;2024-03-06T15:37:23;13.40;64.10